sensor_id;sensor_type;location;lat;lon;timestamp;temperature;humidity
39401;DHT22;54391;50.000;7.360;2022-07-29T00:01:22;18.50;1.00
39401;DHT22;54391;50.000;7.360;2022-07-29T00:03:50;18.40;1.00
39401;DHT22;54391;50.000;7.360;2022-07-29T00:06:17;18.40;1.00
39401;DHT22;54391;50.000;7.360;2022-07-29T00:08:44;18.40;1.00
39401;DHT22;54391;50.000;7.360;2022-07-29T00:11:13;18.40;1.00
39401;DHT22;54391;50.000;7.360;2022-07-29T00:13:40;18.50;1.00
39401;DHT22;54391;50.000;7.360;2022-07-29T00:16:08;18.50;1.00
39401;DHT22;54391;50.000;7.360;2022-07-29T00:18:35;18.70;1.00
39401;DHT22;54391;50.000;7.360;2022-07-29T00:21:02;19.40;1.00
39401;DHT22;54391;50.000;7.360;2022-07-29T00:23:30;18.80;1.00
39401;DHT22;54391;50.000;7.360;2022-07-29T00:25:57;18.80;1.00
39401;DHT22;54391;50.000;7.360;2022-07-29T00:28:26;18.80;1.00
39401;DHT22;54391;50.000;7.360;2022-07-29T00:30:53;18.70;1.00
39401;DHT22;54391;50.000;7.360;2022-07-29T00:33:20;18.80;1.00
39401;DHT22;54391;50.000;7.360;2022-07-29T00:35:49;18.70;1.00
39401;DHT22;54391;50.000;7.360;2022-07-29T00:38:18;18.60;1.00
39401;DHT22;54391;50.000;7.360;2022-07-29T00:40:47;18.50;1.00
39401;DHT22;54391;50.000;7.360;2022-07-29T00:43:14;18.40;1.00
39401;DHT22;54391;50.000;7.360;2022-07-29T00:45:43;18.30;1.00
39401;DHT22;54391;50.000;7.360;2022-07-29T00:48:12;18.20;1.00
39401;DHT22;54391;50.000;7.360;2022-07-29T00:53:08;18.20;1.40
39401;DHT22;54391;50.000;7.360;2022-07-29T00:55:36;18.20;1.20
39401;DHT22;54391;50.000;7.360;2022-07-29T00:58:03;18.60;1.70
39401;DHT22;54391;50.000;7.360;2022-07-29T01:00:31;18.00;1.10
39401;DHT22;54391;50.000;7.360;2022-07-29T01:02:59;17.90;1.30
39401;DHT22;54391;50.000;7.360;2022-07-29T01:05:28;18.00;2.20
39401;DHT22;54391;50.000;7.360;2022-07-29T01:07:57;17.80;1.80
39401;DHT22;54391;50.000;7.360;2022-07-29T01:10:25;17.80;1.90
39401;DHT22;54391;50.000;7.360;2022-07-29T01:12:54;17.80;2.70
39401;DHT22;54391;50.000;7.360;2022-07-29T01:15:22;17.70;2.80
39401;DHT22;54391;50.000;7.360;2022-07-29T01:18:07;17.80;2.60
39401;DHT22;54391;50.000;7.360;2022-07-29T01:20:52;17.70;2.40
39401;DHT22;54391;50.000;7.360;2022-07-29T01:23:44;17.70;2.80
39401;DHT22;54391;50.000;7.360;2022-07-29T01:26:42;17.70;2.80
39401;DHT22;54391;50.000;7.360;2022-07-29T01:29:17;17.50;3.10
39401;DHT22;54391;50.000;7.360;2022-07-29T01:31:55;17.40;3.50
39401;DHT22;54391;50.000;7.360;2022-07-29T01:34:27;17.40;4.00
39401;DHT22;54391;50.000;7.360;2022-07-29T01:37:04;17.40;4.00
39401;DHT22;54391;50.000;7.360;2022-07-29T01:39:36;17.40;3.50
39401;DHT22;54391;50.000;7.360;2022-07-29T01:42:11;17.50;3.80
39401;DHT22;54391;50.000;7.360;2022-07-29T01:44:46;17.50;4.00
39401;DHT22;54391;50.000;7.360;2022-07-29T01:47:19;17.50;4.30
39401;DHT22;54391;50.000;7.360;2022-07-29T01:49:50;17.50;3.80
39401;DHT22;54391;50.000;7.360;2022-07-29T01:52:21;17.40;3.60
39401;DHT22;54391;50.000;7.360;2022-07-29T01:54:53;17.50;3.80
39401;DHT22;54391;50.000;7.360;2022-07-29T01:57:26;17.40;4.40
39401;DHT22;54391;50.000;7.360;2022-07-29T01:59:58;17.40;4.00
39401;DHT22;54391;50.000;7.360;2022-07-29T02:02:39;17.40;4.70
39401;DHT22;54391;50.000;7.360;2022-07-29T02:07:39;17.30;4.70
39401;DHT22;54391;50.000;7.360;2022-07-29T02:10:09;17.30;4.40
39401;DHT22;54391;50.000;7.360;2022-07-29T02:12:38;17.20;4.60
39401;DHT22;54391;50.000;7.360;2022-07-29T02:15:08;17.20;5.50
39401;DHT22;54391;50.000;7.360;2022-07-29T02:17:55;17.40;5.70
39401;DHT22;54391;50.000;7.360;2022-07-29T02:20:25;17.50;5.00
39401;DHT22;54391;50.000;7.360;2022-07-29T02:22:54;17.80;4.90
39401;DHT22;54391;50.000;7.360;2022-07-29T02:25:23;17.70;3.40
39401;DHT22;54391;50.000;7.360;2022-07-29T02:27:51;17.50;3.90
39401;DHT22;54391;50.000;7.360;2022-07-29T02:30:22;17.50;4.70
39401;DHT22;54391;50.000;7.360;2022-07-29T02:32:51;17.50;5.00
39401;DHT22;54391;50.000;7.360;2022-07-29T02:35:20;17.30;5.20
39401;DHT22;54391;50.000;7.360;2022-07-29T02:37:48;17.30;5.50
39401;DHT22;54391;50.000;7.360;2022-07-29T02:40:31;17.30;5.20
39401;DHT22;54391;50.000;7.360;2022-07-29T02:43:00;17.30;5.40
39401;DHT22;54391;50.000;7.360;2022-07-29T02:45:30;17.40;5.70
39401;DHT22;54391;50.000;7.360;2022-07-29T02:48:00;17.40;6.20
39401;DHT22;54391;50.000;7.360;2022-07-29T02:50:35;17.50;5.30
39401;DHT22;54391;50.000;7.360;2022-07-29T02:53:08;17.60;5.10
39401;DHT22;54391;50.000;7.360;2022-07-29T02:55:40;17.50;5.40
39401;DHT22;54391;50.000;7.360;2022-07-29T02:58:15;17.30;5.30
39401;DHT22;54391;50.000;7.360;2022-07-29T03:00:47;17.20;5.50
39401;DHT22;54391;50.000;7.360;2022-07-29T03:03:17;17.10;6.10
39401;DHT22;54391;50.000;7.360;2022-07-29T03:05:45;17.00;6.60
39401;DHT22;54391;50.000;7.360;2022-07-29T03:08:14;16.90;6.50
39401;DHT22;54391;50.000;7.360;2022-07-29T03:10:44;16.90;7.10
39401;DHT22;54391;50.000;7.360;2022-07-29T03:13:14;17.00;7.10
39401;DHT22;54391;50.000;7.360;2022-07-29T03:15:43;16.90;7.30
39401;DHT22;54391;50.000;7.360;2022-07-29T03:18:13;16.80;7.80
39401;DHT22;54391;50.000;7.360;2022-07-29T03:20:40;16.80;8.30
39401;DHT22;54391;50.000;7.360;2022-07-29T03:23:08;16.90;7.90
39401;DHT22;54391;50.000;7.360;2022-07-29T03:25:35;16.80;7.60
39401;DHT22;54391;50.000;7.360;2022-07-29T03:28:03;16.80;7.70
39401;DHT22;54391;50.000;7.360;2022-07-29T03:30:31;16.70;7.50
39401;DHT22;54391;50.000;7.360;2022-07-29T03:35:27;16.60;7.70
39401;DHT22;54391;50.000;7.360;2022-07-29T03:37:55;16.60;8.40
39401;DHT22;54391;50.000;7.360;2022-07-29T03:40:26;16.50;8.20
39401;DHT22;54391;50.000;7.360;2022-07-29T03:42:55;16.50;8.80
39401;DHT22;54391;50.000;7.360;2022-07-29T03:45:24;16.50;8.90
39401;DHT22;54391;50.000;7.360;2022-07-29T03:47:55;16.50;8.90
39401;DHT22;54391;50.000;7.360;2022-07-29T03:50:24;16.50;8.40
39401;DHT22;54391;50.000;7.360;2022-07-29T03:52:53;16.60;8.40
39401;DHT22;54391;50.000;7.360;2022-07-29T03:55:20;16.60;8.80
39401;DHT22;54391;50.000;7.360;2022-07-29T03:57:49;16.60;8.80
39401;DHT22;54391;50.000;7.360;2022-07-29T04:00:16;16.60;8.30
39401;DHT22;54391;50.000;7.360;2022-07-29T04:02:45;16.60;8.90
39401;DHT22;54391;50.000;7.360;2022-07-29T04:05:14;16.60;9.10
39401;DHT22;54391;50.000;7.360;2022-07-29T04:07:43;16.60;9.10
39401;DHT22;54391;50.000;7.360;2022-07-29T04:10:13;16.50;8.90
39401;DHT22;54391;50.000;7.360;2022-07-29T04:12:41;16.50;9.60
39401;DHT22;54391;50.000;7.360;2022-07-29T04:15:09;16.40;9.40
39401;DHT22;54391;50.000;7.360;2022-07-29T04:17:37;16.40;10.10
39401;DHT22;54391;50.000;7.360;2022-07-29T04:20:06;16.40;9.80
39401;DHT22;54391;50.000;7.360;2022-07-29T04:22:33;16.40;10.30
39401;DHT22;54391;50.000;7.360;2022-07-29T04:25:02;16.40;10.60
39401;DHT22;54391;50.000;7.360;2022-07-29T04:27:32;16.40;10.70
39401;DHT22;54391;50.000;7.360;2022-07-29T04:29:59;16.40;10.40
39401;DHT22;54391;50.000;7.360;2022-07-29T04:32:28;16.40;10.80
39401;DHT22;54391;50.000;7.360;2022-07-29T04:34:58;16.50;10.50
39401;DHT22;54391;50.000;7.360;2022-07-29T04:37:27;16.50;10.50
39401;DHT22;54391;50.000;7.360;2022-07-29T04:39:54;16.70;9.70
39401;DHT22;54391;50.000;7.360;2022-07-29T04:42:22;16.70;10.10
39401;DHT22;54391;50.000;7.360;2022-07-29T04:47:18;16.70;9.90
39401;DHT22;54391;50.000;7.360;2022-07-29T04:49:45;16.50;10.00
39401;DHT22;54391;50.000;7.360;2022-07-29T04:54:40;16.50;10.40
39401;DHT22;54391;50.000;7.360;2022-07-29T04:57:08;16.50;10.30
39401;DHT22;54391;50.000;7.360;2022-07-29T05:04:42;18.00;9.90
39401;DHT22;54391;50.000;7.360;2022-07-29T05:07:09;16.90;9.50
39401;DHT22;54391;50.000;7.360;2022-07-29T05:09:37;17.00;8.60
39401;DHT22;54391;50.000;7.360;2022-07-29T05:12:05;17.00;9.40
39401;DHT22;54391;50.000;7.360;2022-07-29T05:14:32;17.10;9.00
39401;DHT22;54391;50.000;7.360;2022-07-29T05:17:00;17.00;9.10
39401;DHT22;54391;50.000;7.360;2022-07-29T05:19:30;17.10;8.70
39401;DHT22;54391;50.000;7.360;2022-07-29T05:21:57;17.00;8.60
39401;DHT22;54391;50.000;7.360;2022-07-29T05:24:25;17.10;8.90
39401;DHT22;54391;50.000;7.360;2022-07-29T05:26:53;17.10;9.40
39401;DHT22;54391;50.000;7.360;2022-07-29T05:29:20;17.10;9.30
39401;DHT22;54391;50.000;7.360;2022-07-29T05:31:48;17.00;9.70
39401;DHT22;54391;50.000;7.360;2022-07-29T05:34:16;17.00;9.60
39401;DHT22;54391;50.000;7.360;2022-07-29T05:36:46;17.20;10.00
39401;DHT22;54391;50.000;7.360;2022-07-29T05:39:14;17.20;9.10
39401;DHT22;54391;50.000;7.360;2022-07-29T05:41:41;17.20;9.10
39401;DHT22;54391;50.000;7.360;2022-07-29T05:44:09;17.20;9.10
39401;DHT22;54391;50.000;7.360;2022-07-29T05:46:37;17.30;9.40
39401;DHT22;54391;50.000;7.360;2022-07-29T05:49:05;17.30;9.20
39401;DHT22;54391;50.000;7.360;2022-07-29T05:51:33;17.30;9.50
39401;DHT22;54391;50.000;7.360;2022-07-29T05:54:02;17.30;9.50
39401;DHT22;54391;50.000;7.360;2022-07-29T05:56:29;17.40;9.50
39401;DHT22;54391;50.000;7.360;2022-07-29T05:58:57;17.40;9.10
39401;DHT22;54391;50.000;7.360;2022-07-29T06:03:52;17.40;9.00
39401;DHT22;54391;50.000;7.360;2022-07-29T06:06:19;17.40;9.20
39401;DHT22;54391;50.000;7.360;2022-07-29T06:08:47;17.50;8.70
39401;DHT22;54391;50.000;7.360;2022-07-29T06:11:16;17.50;9.30
39401;DHT22;54391;50.000;7.360;2022-07-29T06:13:43;22.60;10.20
39401;DHT22;54391;50.000;7.360;2022-07-29T06:16:10;17.70;8.50
39401;DHT22;54391;50.000;7.360;2022-07-29T06:18:38;17.80;7.80
39401;DHT22;54391;50.000;7.360;2022-07-29T06:21:08;17.70;8.20
39401;DHT22;54391;50.000;7.360;2022-07-29T06:23:36;18.10;7.50
39401;DHT22;54391;50.000;7.360;2022-07-29T06:26:04;18.20;7.70
39401;DHT22;54391;50.000;7.360;2022-07-29T06:28:33;18.50;6.60
39401;DHT22;54391;50.000;7.360;2022-07-29T06:31:01;18.50;6.60
39401;DHT22;54391;50.000;7.360;2022-07-29T06:33:28;18.60;6.60
39401;DHT22;54391;50.000;7.360;2022-07-29T06:35:56;18.90;5.90
39401;DHT22;54391;50.000;7.360;2022-07-29T06:38:23;19.10;6.60
39401;DHT22;54391;50.000;7.360;2022-07-29T06:40:50;19.10;6.70
39401;DHT22;54391;50.000;7.360;2022-07-29T06:43:38;19.10;6.20
39401;DHT22;54391;50.000;7.360;2022-07-29T06:46:08;19.50;5.20
39401;DHT22;54391;50.000;7.360;2022-07-29T06:48:36;19.60;4.60
39401;DHT22;54391;50.000;7.360;2022-07-29T06:51:04;19.60;5.00
39401;DHT22;54391;50.000;7.360;2022-07-29T06:53:33;19.70;5.10
39401;DHT22;54391;50.000;7.360;2022-07-29T06:56:01;19.90;5.20
39401;DHT22;54391;50.000;7.360;2022-07-29T06:58:29;19.80;4.60
39401;DHT22;54391;50.000;7.360;2022-07-29T07:00:58;19.90;4.90
39401;DHT22;54391;50.000;7.360;2022-07-29T07:03:28;19.90;4.50
39401;DHT22;54391;50.000;7.360;2022-07-29T07:05:56;20.60;2.90
39401;DHT22;54391;50.000;7.360;2022-07-29T07:08:24;22.90;1.00
39401;DHT22;54391;50.000;7.360;2022-07-29T07:10:52;23.00;1.00
39401;DHT22;54391;50.000;7.360;2022-07-29T07:13:21;24.10;1.00
39401;DHT22;54391;50.000;7.360;2022-07-29T07:18:18;25.10;1.00
39401;DHT22;54391;50.000;7.360;2022-07-29T07:20:45;25.10;1.00
39401;DHT22;54391;50.000;7.360;2022-07-29T07:23:13;25.70;1.00
39401;DHT22;54391;50.000;7.360;2022-07-29T07:25:40;26.00;1.00
39401;DHT22;54391;50.000;7.360;2022-07-29T07:28:08;26.00;1.00
39401;DHT22;54391;50.000;7.360;2022-07-29T07:30:35;25.90;1.00
39401;DHT22;54391;50.000;7.360;2022-07-29T07:33:03;26.20;1.00
39401;DHT22;54391;50.000;7.360;2022-07-29T07:35:32;26.20;1.00
39401;DHT22;54391;50.000;7.360;2022-07-29T07:37:59;26.50;1.00
39401;DHT22;54391;50.000;7.360;2022-07-29T07:40:27;26.50;1.00
39401;DHT22;54391;50.000;7.360;2022-07-29T07:42:55;26.80;1.00
39401;DHT22;54391;50.000;7.360;2022-07-29T07:45:22;26.70;1.00
39401;DHT22;54391;50.000;7.360;2022-07-29T07:47:49;26.80;1.00
39401;DHT22;54391;50.000;7.360;2022-07-29T07:50:17;26.80;1.00
39401;DHT22;54391;50.000;7.360;2022-07-29T07:52:51;27.30;1.00
39401;DHT22;54391;50.000;7.360;2022-07-29T07:55:18;27.50;1.00
39401;DHT22;54391;50.000;7.360;2022-07-29T07:57:46;27.00;1.00
39401;DHT22;54391;50.000;7.360;2022-07-29T08:00:15;26.60;1.00
39401;DHT22;54391;50.000;7.360;2022-07-29T08:02:43;26.40;1.00
39401;DHT22;54391;50.000;7.360;2022-07-29T08:05:12;26.50;1.00
39401;DHT22;54391;50.000;7.360;2022-07-29T08:07:44;25.90;1.00
39401;DHT22;54391;50.000;7.360;2022-07-29T08:10:13;26.60;1.00
39401;DHT22;54391;50.000;7.360;2022-07-29T08:12:40;27.40;1.00
39401;DHT22;54391;50.000;7.360;2022-07-29T08:15:08;27.20;1.00
39401;DHT22;54391;50.000;7.360;2022-07-29T08:17:36;27.10;1.00
39401;DHT22;54391;50.000;7.360;2022-07-29T08:20:04;27.60;1.00
39401;DHT22;54391;50.000;7.360;2022-07-29T08:22:32;28.00;1.00
39401;DHT22;54391;50.000;7.360;2022-07-29T08:24:59;27.90;1.00
39401;DHT22;54391;50.000;7.360;2022-07-29T08:27:29;27.00;1.00
39401;DHT22;54391;50.000;7.360;2022-07-29T08:29:57;26.70;1.00
39401;DHT22;54391;50.000;7.360;2022-07-29T08:32:25;26.90;1.00
39401;DHT22;54391;50.000;7.360;2022-07-29T08:34:54;26.80;1.00
39401;DHT22;54391;50.000;7.360;2022-07-29T08:39:49;28.40;1.00
39401;DHT22;54391;50.000;7.360;2022-07-29T08:42:16;28.70;1.00
39401;DHT22;54391;50.000;7.360;2022-07-29T08:44:45;28.20;1.00
39401;DHT22;54391;50.000;7.360;2022-07-29T08:47:14;28.40;1.00
39401;DHT22;54391;50.000;7.360;2022-07-29T08:49:41;28.90;1.00
39401;DHT22;54391;50.000;7.360;2022-07-29T08:52:11;29.00;1.00
39401;DHT22;54391;50.000;7.360;2022-07-29T08:54:39;28.50;1.00
39401;DHT22;54391;50.000;7.360;2022-07-29T08:57:06;28.90;1.00
39401;DHT22;54391;50.000;7.360;2022-07-29T08:59:34;29.50;1.00
39401;DHT22;54391;50.000;7.360;2022-07-29T09:02:04;29.30;1.00
39401;DHT22;54391;50.000;7.360;2022-07-29T09:04:34;28.90;1.00
39401;DHT22;54391;50.000;7.360;2022-07-29T09:07:04;29.50;1.00
39401;DHT22;54391;50.000;7.360;2022-07-29T09:09:33;29.70;1.00
39401;DHT22;54391;50.000;7.360;2022-07-29T09:12:01;31.70;1.00
39401;DHT22;54391;50.000;7.360;2022-07-29T09:14:29;30.10;1.00
39401;DHT22;54391;50.000;7.360;2022-07-29T09:16:57;30.10;1.00
39401;DHT22;54391;50.000;7.360;2022-07-29T09:19:27;30.00;1.00
39401;DHT22;54391;50.000;7.360;2022-07-29T09:21:56;30.20;1.00
39401;DHT22;54391;50.000;7.360;2022-07-29T09:24:24;30.30;1.00
39401;DHT22;54391;50.000;7.360;2022-07-29T09:26:51;29.40;1.00
39401;DHT22;54391;50.000;7.360;2022-07-29T09:29:20;27.60;1.00
39401;DHT22;54391;50.000;7.360;2022-07-29T09:31:49;27.70;1.00
39401;DHT22;54391;50.000;7.360;2022-07-29T09:34:21;28.00;1.00
39401;DHT22;54391;50.000;7.360;2022-07-29T09:36:51;28.20;1.00
39401;DHT22;54391;50.000;7.360;2022-07-29T09:39:27;27.80;1.00
39401;DHT22;54391;50.000;7.360;2022-07-29T09:41:56;27.80;1.00
39401;DHT22;54391;50.000;7.360;2022-07-29T09:44:24;28.30;1.00
39401;DHT22;54391;50.000;7.360;2022-07-29T09:46:56;28.40;1.00
39401;DHT22;54391;50.000;7.360;2022-07-29T09:49:24;27.30;1.00
39401;DHT22;54391;50.000;7.360;2022-07-29T09:52:08;28.80;1.00
39401;DHT22;54391;50.000;7.360;2022-07-29T09:54:37;28.80;1.00
39401;DHT22;54391;50.000;7.360;2022-07-29T09:57:05;29.30;1.00
39401;DHT22;54391;50.000;7.360;2022-07-29T09:59:33;28.70;1.00
39401;DHT22;54391;50.000;7.360;2022-07-29T10:02:00;27.90;1.00
39401;DHT22;54391;50.000;7.360;2022-07-29T10:04:39;27.60;1.00
39401;DHT22;54391;50.000;7.360;2022-07-29T10:07:08;27.00;1.00
39401;DHT22;54391;50.000;7.360;2022-07-29T10:09:35;25.70;1.00
39401;DHT22;54391;50.000;7.360;2022-07-29T10:12:08;25.80;1.00
39401;DHT22;54391;50.000;7.360;2022-07-29T10:14:37;25.90;1.00
39401;DHT22;54391;50.000;7.360;2022-07-29T10:17:07;26.00;1.00
39401;DHT22;54391;50.000;7.360;2022-07-29T10:19:35;25.70;1.00
39401;DHT22;54391;50.000;7.360;2022-07-29T10:22:04;25.60;1.00
39401;DHT22;54391;50.000;7.360;2022-07-29T10:24:33;25.40;1.00
39401;DHT22;54391;50.000;7.360;2022-07-29T10:27:02;25.30;1.00
39401;DHT22;54391;50.000;7.360;2022-07-29T10:29:30;25.80;1.00
39401;DHT22;54391;50.000;7.360;2022-07-29T10:35:06;27.90;1.00
39401;DHT22;54391;50.000;7.360;2022-07-29T10:37:46;28.40;1.00
39401;DHT22;54391;50.000;7.360;2022-07-29T10:40:28;28.90;1.00
39401;DHT22;54391;50.000;7.360;2022-07-29T10:43:22;29.10;1.00
39401;DHT22;54391;50.000;7.360;2022-07-29T10:45:55;30.40;1.00
39401;DHT22;54391;50.000;7.360;2022-07-29T10:48:23;30.10;1.00
39401;DHT22;54391;50.000;7.360;2022-07-29T10:50:55;30.00;1.00
39401;DHT22;54391;50.000;7.360;2022-07-29T10:53:25;29.00;1.00
39401;DHT22;54391;50.000;7.360;2022-07-29T10:56:24;28.30;1.00
39401;DHT22;54391;50.000;7.360;2022-07-29T10:59:23;28.60;1.00
39401;DHT22;54391;50.000;7.360;2022-07-29T11:01:53;28.40;1.00
39401;DHT22;54391;50.000;7.360;2022-07-29T11:07:25;28.20;1.00
39401;DHT22;54391;50.000;7.360;2022-07-29T11:10:19;27.90;1.00
39401;DHT22;54391;50.000;7.360;2022-07-29T11:12:49;28.00;1.00
39401;DHT22;54391;50.000;7.360;2022-07-29T11:15:18;28.30;1.00
39401;DHT22;54391;50.000;7.360;2022-07-29T11:18:06;28.90;1.00
39401;DHT22;54391;50.000;7.360;2022-07-29T11:20:36;28.50;1.00
39401;DHT22;54391;50.000;7.360;2022-07-29T11:23:18;28.00;1.00
39401;DHT22;54391;50.000;7.360;2022-07-29T11:26:18;27.70;1.00
39401;DHT22;54391;50.000;7.360;2022-07-29T11:31:33;28.40;1.00
39401;DHT22;54391;50.000;7.360;2022-07-29T11:34:22;28.50;1.00
39401;DHT22;54391;50.000;7.360;2022-07-29T11:37:18;28.50;1.00
39401;DHT22;54391;50.000;7.360;2022-07-29T11:39:49;28.40;1.00
39401;DHT22;54391;50.000;7.360;2022-07-29T11:42:45;28.50;1.00
39401;DHT22;54391;50.000;7.360;2022-07-29T11:47:51;29.30;1.00
39401;DHT22;54391;50.000;7.360;2022-07-29T11:50:31;29.40;1.00
39401;DHT22;54391;50.000;7.360;2022-07-29T11:53:01;29.50;1.00
39401;DHT22;54391;50.000;7.360;2022-07-29T11:55:29;29.40;1.00
39401;DHT22;54391;50.000;7.360;2022-07-29T11:58:02;29.50;1.00
39401;DHT22;54391;50.000;7.360;2022-07-29T12:00:32;29.30;1.00
39401;DHT22;54391;50.000;7.360;2022-07-29T12:03:02;29.30;1.00
39401;DHT22;54391;50.000;7.360;2022-07-29T12:05:36;29.40;1.00
39401;DHT22;54391;50.000;7.360;2022-07-29T12:08:09;29.20;1.00
39401;DHT22;54391;50.000;7.360;2022-07-29T12:10:37;29.10;1.00
39401;DHT22;54391;50.000;7.360;2022-07-29T12:13:05;28.60;1.00
39401;DHT22;54391;50.000;7.360;2022-07-29T12:15:34;28.50;1.00
39401;DHT22;54391;50.000;7.360;2022-07-29T12:18:15;28.00;1.00
39401;DHT22;54391;50.000;7.360;2022-07-29T12:20:47;27.90;1.00
39401;DHT22;54391;50.000;7.360;2022-07-29T12:23:15;27.90;1.00
39401;DHT22;54391;50.000;7.360;2022-07-29T12:25:45;27.80;1.00
39401;DHT22;54391;50.000;7.360;2022-07-29T12:28:14;27.90;1.00
39401;DHT22;54391;50.000;7.360;2022-07-29T12:30:47;27.90;1.00
39401;DHT22;54391;50.000;7.360;2022-07-29T12:33:18;27.80;1.00
39401;DHT22;54391;50.000;7.360;2022-07-29T12:35:48;27.60;1.00
39401;DHT22;54391;50.000;7.360;2022-07-29T12:38:17;27.70;1.00
39401;DHT22;54391;50.000;7.360;2022-07-29T12:40:45;27.70;1.00
39401;DHT22;54391;50.000;7.360;2022-07-29T12:43:17;27.90;1.00
39401;DHT22;54391;50.000;7.360;2022-07-29T12:45:48;27.60;1.00
39401;DHT22;54391;50.000;7.360;2022-07-29T12:48:33;27.70;1.00
39401;DHT22;54391;50.000;7.360;2022-07-29T12:51:01;27.70;1.00
39401;DHT22;54391;50.000;7.360;2022-07-29T12:53:30;27.60;1.00
39401;DHT22;54391;50.000;7.360;2022-07-29T12:55:58;27.50;1.00
39401;DHT22;54391;50.000;7.360;2022-07-29T12:58:30;27.60;1.00
39401;DHT22;54391;50.000;7.360;2022-07-29T13:01:10;27.60;1.00
39401;DHT22;54391;50.000;7.360;2022-07-29T13:03:47;27.70;1.00
39401;DHT22;54391;50.000;7.360;2022-07-29T13:06:32;27.60;1.00
39401;DHT22;54391;50.000;7.360;2022-07-29T13:09:05;27.40;1.00
39401;DHT22;54391;50.000;7.360;2022-07-29T13:11:33;27.60;1.00
39401;DHT22;54391;50.000;7.360;2022-07-29T13:16:30;27.50;1.00
39401;DHT22;54391;50.000;7.360;2022-07-29T13:19:09;27.60;1.00
39401;DHT22;54391;50.000;7.360;2022-07-29T13:21:38;27.70;1.00
39401;DHT22;54391;50.000;7.360;2022-07-29T13:24:07;27.50;1.00
39401;DHT22;54391;50.000;7.360;2022-07-29T13:26:34;27.20;1.00
39401;DHT22;54391;50.000;7.360;2022-07-29T13:29:02;27.20;1.00
39401;DHT22;54391;50.000;7.360;2022-07-29T13:31:31;27.10;1.00
39401;DHT22;54391;50.000;7.360;2022-07-29T13:33:58;26.90;1.00
39401;DHT22;54391;50.000;7.360;2022-07-29T13:36:25;27.20;1.00
39401;DHT22;54391;50.000;7.360;2022-07-29T13:38:53;27.50;1.00
39401;DHT22;54391;50.000;7.360;2022-07-29T13:41:20;27.60;1.00
39401;DHT22;54391;50.000;7.360;2022-07-29T13:43:47;27.80;1.00
39401;DHT22;54391;50.000;7.360;2022-07-29T13:46:15;27.60;1.00
39401;DHT22;54391;50.000;7.360;2022-07-29T13:48:43;27.70;1.00
39401;DHT22;54391;50.000;7.360;2022-07-29T13:51:11;27.60;1.00
39401;DHT22;54391;50.000;7.360;2022-07-29T13:53:39;27.80;1.00
39401;DHT22;54391;50.000;7.360;2022-07-29T13:56:06;27.70;1.00
39401;DHT22;54391;50.000;7.360;2022-07-29T13:58:33;27.70;1.00
39401;DHT22;54391;50.000;7.360;2022-07-29T14:01:01;27.60;1.00
39401;DHT22;54391;50.000;7.360;2022-07-29T14:03:29;27.70;1.00
39401;DHT22;54391;50.000;7.360;2022-07-29T14:05:58;27.50;1.00
39401;DHT22;54391;50.000;7.360;2022-07-29T14:08:27;26.90;1.00
39401;DHT22;54391;50.000;7.360;2022-07-29T14:10:55;26.90;1.00
39401;DHT22;54391;50.000;7.360;2022-07-29T14:13:22;26.80;1.00
39401;DHT22;54391;50.000;7.360;2022-07-29T14:18:17;26.50;1.00
39401;DHT22;54391;50.000;7.360;2022-07-29T14:20:44;26.50;1.00
39401;DHT22;54391;50.000;7.360;2022-07-29T14:23:13;26.60;1.00
39401;DHT22;54391;50.000;7.360;2022-07-29T14:25:40;26.50;1.00
39401;DHT22;54391;50.000;7.360;2022-07-29T14:28:08;26.50;1.00
39401;DHT22;54391;50.000;7.360;2022-07-29T14:30:35;26.50;1.00
39401;DHT22;54391;50.000;7.360;2022-07-29T14:33:03;26.50;1.00
39401;DHT22;54391;50.000;7.360;2022-07-29T14:35:30;26.50;1.00
39401;DHT22;54391;50.000;7.360;2022-07-29T14:37:57;26.40;1.00
39401;DHT22;54391;50.000;7.360;2022-07-29T14:42:54;26.40;1.00
39401;DHT22;54391;50.000;7.360;2022-07-29T14:45:21;26.40;1.00
39401;DHT22;54391;50.000;7.360;2022-07-29T14:47:48;26.60;1.00
39401;DHT22;54391;50.000;7.360;2022-07-29T14:50:16;26.90;1.00
39401;DHT22;54391;50.000;7.360;2022-07-29T14:52:44;26.90;1.00
39401;DHT22;54391;50.000;7.360;2022-07-29T14:55:11;27.10;1.00
39401;DHT22;54391;50.000;7.360;2022-07-29T14:57:40;27.20;1.00
39401;DHT22;54391;50.000;7.360;2022-07-29T15:00:09;27.30;1.00
39401;DHT22;54391;50.000;7.360;2022-07-29T15:02:37;27.40;1.00
39401;DHT22;54391;50.000;7.360;2022-07-29T15:05:05;27.10;1.00
39401;DHT22;54391;50.000;7.360;2022-07-29T15:07:32;27.10;1.00
39401;DHT22;54391;50.000;7.360;2022-07-29T15:09:59;27.00;1.00
39401;DHT22;54391;50.000;7.360;2022-07-29T15:12:30;26.90;1.00
39401;DHT22;54391;50.000;7.360;2022-07-29T15:14:59;26.80;1.00
39401;DHT22;54391;50.000;7.360;2022-07-29T15:17:27;26.60;1.00
39401;DHT22;54391;50.000;7.360;2022-07-29T15:19:54;26.40;1.00
39401;DHT22;54391;50.000;7.360;2022-07-29T15:22:22;26.30;1.00
39401;DHT22;54391;50.000;7.360;2022-07-29T15:24:49;26.40;1.00
39401;DHT22;54391;50.000;7.360;2022-07-29T15:27:16;26.40;1.00
39401;DHT22;54391;50.000;7.360;2022-07-29T15:29:44;26.70;1.00
39401;DHT22;54391;50.000;7.360;2022-07-29T15:32:13;27.10;1.00
39401;DHT22;54391;50.000;7.360;2022-07-29T15:34:40;27.00;1.00
39401;DHT22;54391;50.000;7.360;2022-07-29T15:37:08;27.10;1.00
39401;DHT22;54391;50.000;7.360;2022-07-29T15:39:37;27.20;1.00
39401;DHT22;54391;50.000;7.360;2022-07-29T15:42:04;27.40;1.00
39401;DHT22;54391;50.000;7.360;2022-07-29T15:44:32;27.20;1.00
39401;DHT22;54391;50.000;7.360;2022-07-29T15:46:59;27.30;1.00
39401;DHT22;54391;50.000;7.360;2022-07-29T15:49:31;27.10;1.00
39401;DHT22;54391;50.000;7.360;2022-07-29T15:52:00;27.10;1.00
39401;DHT22;54391;50.000;7.360;2022-07-29T15:54:29;26.90;1.00
39401;DHT22;54391;50.000;7.360;2022-07-29T15:56:56;26.90;1.00
39401;DHT22;54391;50.000;7.360;2022-07-29T15:59:23;27.10;1.00
39401;DHT22;54391;50.000;7.360;2022-07-29T16:01:51;27.10;1.00
39401;DHT22;54391;50.000;7.360;2022-07-29T16:04:18;26.90;1.00
39401;DHT22;54391;50.000;7.360;2022-07-29T16:06:47;26.60;1.00
39401;DHT22;54391;50.000;7.360;2022-07-29T16:09:15;25.80;1.00
39401;DHT22;54391;50.000;7.360;2022-07-29T16:11:43;25.60;1.00
39401;DHT22;54391;50.000;7.360;2022-07-29T16:14:13;25.40;1.00
39401;DHT22;54391;50.000;7.360;2022-07-29T16:16:40;25.40;1.00
39401;DHT22;54391;50.000;7.360;2022-07-29T16:19:08;25.50;1.00
39401;DHT22;54391;50.000;7.360;2022-07-29T16:21:35;25.40;1.00
39401;DHT22;54391;50.000;7.360;2022-07-29T16:24:05;25.40;1.00
39401;DHT22;54391;50.000;7.360;2022-07-29T16:26:33;25.20;1.00
39401;DHT22;54391;50.000;7.360;2022-07-29T16:31:28;24.70;1.00
39401;DHT22;54391;50.000;7.360;2022-07-29T16:33:56;24.60;1.00
39401;DHT22;54391;50.000;7.360;2022-07-29T16:38:51;24.10;1.00
39401;DHT22;54391;50.000;7.360;2022-07-29T16:41:19;24.00;1.00
39401;DHT22;54391;50.000;7.360;2022-07-29T16:43:47;24.30;1.00
39401;DHT22;54391;50.000;7.360;2022-07-29T16:46:14;24.10;1.00
39401;DHT22;54391;50.000;7.360;2022-07-29T16:48:41;24.30;1.00
39401;DHT22;54391;50.000;7.360;2022-07-29T16:51:09;24.30;1.00